Time;durP1;ratioP1;P1;durP2;ratioP2;P2;SDS_P1;SDS_P2;PMS_P1;PMS_P2;Temp;Humidity;BMP_temperature;BMP_pressure;BME280_temperature;BME280_humidity;BME280_pressure;Samples;Min_cycle;Max_cycle;Signal;HPM_P1;HPM_P2
2021/03/31 00:02:16;;;;;;;56.75;27.90;;;5.70;53.30;;;;;;5034994;28;20060;-73
2021/03/31 00:04:42;;;;;;;59.45;26.88;;;5.70;53.20;;;;;;5034398;28;20071;-73
2021/03/31 00:07:09;;;;;;;57.08;25.75;;;5.70;53.20;;;;;;5034426;28;20027;-73
2021/03/31 00:20:15;;;;;;;36.85;19.88;;;5.60;53.20;;;;;;5125040;27;854549;-72
2021/03/31 00:22:42;;;;;;;35.03;18.05;;;5.50;52.50;;;;;;5131188;28;20038;-72
2021/03/31 00:25:09;;;;;;;37.30;19.45;;;5.40;52.70;;;;;;5130841;27;20031;-73
2021/03/31 00:27:35;;;;;;;30.85;17.40;;;5.40;52.90;;;;;;5130800;27;20051;-73
2021/03/31 00:30:02;;;;;;;31.30;16.70;;;5.40;53.10;;;;;;5117652;27;20492;-73
2021/03/31 00:32:28;;;;;;;32.08;17.45;;;5.30;53.10;;;;;;5109313;28;20036;-73
2021/03/31 00:34:53;;;;;;;33.58;17.63;;;5.30;53.20;;;;;;5110454;28;20035;-75
2021/03/31 00:37:19;;;;;;;31.88;18.58;;;5.30;53.20;;;;;;5108856;28;20047;-73
2021/03/31 00:39:45;;;;;;;29.58;17.52;;;5.30;53.30;;;;;;5110226;28;20020;-73
2021/03/31 00:42:10;;;;;;;28.48;15.63;;;5.30;53.30;;;;;;5110451;28;20059;-73
2021/03/31 00:44:36;;;;;;;28.70;15.40;;;5.30;53.40;;;;;;5110721;28;20058;-73
2021/03/31 00:47:02;;;;;;;28.42;16.08;;;5.30;53.40;;;;;;5109951;28;20028;-73
2021/03/31 00:49:28;;;;;;;26.65;16.15;;;5.30;53.40;;;;;;5110192;28;20036;-73
2021/03/31 00:51:54;;;;;;;27.70;15.57;;;5.30;53.50;;;;;;5122274;28;20476;-73
2021/03/31 00:54:20;;;;;;;30.98;16.25;;;5.30;53.60;;;;;;5130660;27;20463;-72
2021/03/31 00:56:45;;;;;;;27.77;15.88;;;5.30;53.70;;;;;;5130274;27;20023;-73
2021/03/31 00:59:11;;;;;;;27.90;16.92;;;5.20;53.70;;;;;;5130273;28;20034;-72
2021/03/31 01:01:37;;;;;;;24.23;15.68;;;5.20;53.80;;;;;;5129458;28;20111;-72
2021/03/31 01:04:03;;;;;;;27.40;15.73;;;5.10;53.80;;;;;;5130425;28;20023;-72
2021/03/31 01:06:29;;;;;;;32.92;17.77;;;5.10;54.00;;;;;;5130232;28;20077;-72
2021/03/31 01:08:54;;;;;;;22.55;15.13;;;5.10;54.00;;;;;;5130398;27;20472;-72
2021/03/31 01:11:39;;;;;;;29.13;16.33;;;5.10;54.10;;;;;;5130289;28;20076;-71
2021/03/31 01:14:26;;;;;;;31.05;17.70;;;5.10;54.30;;;;;;5130406;27;20446;-73
2021/03/31 01:16:59;;;;;;;32.10;17.73;;;5.10;54.30;;;;;;5130266;28;20024;-73
2021/03/31 01:19:46;;;;;;;31.98;17.73;;;5.10;54.20;;;;;;5126665;27;20050;-73
2021/03/31 01:22:21;;;;;;;28.90;18.05;;;5.10;54.30;;;;;;5116800;28;20050;-72
2021/03/31 01:25:11;;;;;;;29.08;18.08;;;5.00;54.40;;;;;;5116330;28;20385;-72
2021/03/31 01:28:03;;;;;;;32.22;19.02;;;5.00;54.50;;;;;;5116819;28;20043;-72
2021/03/31 01:30:57;;;;;;;31.10;17.58;;;5.00;54.60;;;;;;5116408;28;20097;-72
2021/03/31 01:33:25;;;;;;;33.60;17.65;;;4.90;54.60;;;;;;5116329;28;20015;-73
2021/03/31 01:35:52;;;;;;;32.40;17.25;;;5.00;54.60;;;;;;5115876;28;20024;-73
2021/03/31 01:38:22;;;;;;;29.08;17.63;;;5.00;54.60;;;;;;5115883;28;20550;-72
2021/03/31 01:40:49;;;;;;;33.08;17.73;;;4.90;54.60;;;;;;5116197;28;20035;-72
2021/03/31 01:43:18;;;;;;;36.20;17.98;;;5.00;54.70;;;;;;5116014;28;20019;-72
2021/03/31 01:45:48;;;;;;;32.60;17.50;;;5.00;54.70;;;;;;5116106;28;20370;-73
2021/03/31 01:48:19;;;;;;;37.00;17.73;;;5.00;54.80;;;;;;5099136;28;20040;-72
2021/03/31 01:50:51;;;;;;;40.03;18.50;;;5.00;54.80;;;;;;5095597;28;20047;-72
2021/03/31 01:53:18;;;;;;;34.05;17.73;;;5.10;54.80;;;;;;5099847;28;20047;-72
2021/03/31 01:55:47;;;;;;;32.88;18.17;;;5.10;54.70;;;;;;5098089;28;20473;-73
2021/03/31 01:58:15;;;;;;;35.75;17.95;;;5.20;54.70;;;;;;5114144;28;20469;-73
2021/03/31 02:00:41;;;;;;;33.80;18.38;;;5.20;54.60;;;;;;5115450;28;20026;-73
2021/03/31 02:03:08;;;;;;;35.25;17.52;;;5.20;54.50;;;;;;5096840;28;20035;-73
2021/03/31 02:05:36;;;;;;;29.98;17.17;;;5.10;54.50;;;;;;5114216;28;20470;-73
2021/03/31 02:08:04;;;;;;;31.75;19.35;;;5.10;54.50;;;;;;5112866;28;20041;-73
2021/03/31 02:10:31;;;;;;;32.78;18.30;;;5.10;54.50;;;;;;5114785;28;20027;-73
2021/03/31 02:12:58;;;;;;;38.22;19.52;;;5.10;54.50;;;;;;5111914;28;20461;-73
2021/03/31 02:15:29;;;;;;;37.15;18.88;;;5.10;54.50;;;;;;5114488;28;20026;-74
2021/03/31 02:17:57;;;;;;;39.85;20.92;;;5.10;54.60;;;;;;5114235;28;20034;-73
2021/03/31 02:20:24;;;;;;;38.70;21.35;;;5.10;54.70;;;;;;5114012;28;20126;-73
2021/03/31 02:22:51;;;;;;;37.65;21.27;;;5.00;54.70;;;;;;5114114;28;20031;-72
2021/03/31 02:25:18;;;;;;;36.65;20.40;;;5.00;54.70;;;;;;5113934;28;20373;-73
2021/03/31 02:27:46;;;;;;;39.03;19.77;;;5.10;54.80;;;;;;5113634;28;20340;-73
2021/03/31 02:30:14;;;;;;;37.72;20.27;;;5.10;54.90;;;;;;5113583;28;20059;-73
2021/03/31 02:32:43;;;;;;;37.67;20.08;;;5.10;54.90;;;;;;5109297;28;20445;-73
2021/03/31 02:35:10;;;;;;;44.80;21.90;;;5.10;55.00;;;;;;5113572;28;20072;-73
2021/03/31 02:37:38;;;;;;;44.00;22.88;;;5.10;55.00;;;;;;5113471;28;20422;-72
2021/03/31 02:40:06;;;;;;;46.92;23.10;;;5.20;55.10;;;;;;5113743;28;20020;-73
2021/03/31 02:42:32;;;;;;;47.55;23.17;;;5.20;55.10;;;;;;5113462;28;20050;-74
2021/03/31 02:44:59;;;;;;;47.67;24.33;;;5.20;55.00;;;;;;5111194;28;20062;-72
2021/03/31 02:47:29;;;;;;;48.65;24.70;;;5.30;55.10;;;;;;5112214;28;20043;-72
2021/03/31 02:50:01;;;;;;;46.22;24.85;;;5.30;55.00;;;;;;5113545;28;20349;-74
2021/03/31 02:52:28;;;;;;;44.88;25.00;;;5.30;55.00;;;;;;5066113;28;20041;-72
2021/03/31 02:54:55;;;;;;;48.42;24.83;;;5.30;54.80;;;;;;5041584;28;20497;-72
2021/03/31 02:57:23;;;;;;;42.00;24.10;;;5.30;54.80;;;;;;5042307;28;20059;-74
2021/03/31 02:59:50;;;;;;;44.58;24.63;;;5.40;54.80;;;;;;5042530;28;20028;-72
2021/03/31 03:02:17;;;;;;;45.72;24.38;;;5.30;54.70;;;;;;5039893;28;20025;-73
2021/03/31 03:04:50;;;;;;;46.75;24.55;;;5.30;54.70;;;;;;5040775;28;20025;-72
2021/03/31 03:07:17;;;;;;;50.33;23.95;;;5.20;54.80;;;;;;5041579;28;20021;-72
2021/03/31 03:09:45;;;;;;;45.17;25.73;;;5.20;54.90;;;;;;5042852;28;20398;-73
2021/03/31 03:12:16;;;;;;;47.25;26.60;;;5.10;54.90;;;;;;5043261;28;20025;-73
2021/03/31 03:14:46;;;;;;;48.38;26.90;;;5.10;55.10;;;;;;5043639;28;20059;-74
2021/03/31 03:17:11;;;;;;;53.03;28.30;;;5.10;55.10;;;;;;5043239;28;20032;-74
2021/03/31 03:19:37;;;;;;;61.95;32.90;;;5.10;55.20;;;;;;5041369;28;20436;-73
2021/03/31 03:22:04;;;;;;;68.63;37.20;;;5.10;55.20;;;;;;5042633;28;20092;-73
2021/03/31 03:24:31;;;;;;;83.07;41.10;;;5.10;55.20;;;;;;5042712;28;20021;-73
2021/03/31 03:26:58;;;;;;;82.57;39.85;;;5.10;55.30;;;;;;5040916;28;20467;-73
2021/03/31 03:29:25;;;;;;;84.63;40.75;;;5.10;55.20;;;;;;5041963;28;20091;-73
2021/03/31 03:31:52;;;;;;;76.90;34.22;;;5.10;55.20;;;;;;5041653;28;20418;-73
2021/03/31 03:34:18;;;;;;;74.22;33.97;;;5.10;55.20;;;;;;5043253;28;20021;-72
2021/03/31 03:36:45;;;;;;;48.45;24.25;;;5.10;55.20;;;;;;5041809;28;20041;-74
2021/03/31 03:39:11;;;;;;;42.88;21.75;;;5.10;55.10;;;;;;5043897;28;20025;-73
2021/03/31 03:41:37;;;;;;;46.55;24.20;;;5.10;55.00;;;;;;5040654;28;20078;-73
2021/03/31 03:44:04;;;;;;;44.00;23.42;;;5.10;55.00;;;;;;5040840;28;20017;-74
2021/03/31 03:46:33;;;;;;;47.63;23.38;;;5.10;55.00;;;;;;5041554;28;20025;-72
2021/03/31 03:49:00;;;;;;;46.78;24.13;;;5.00;55.00;;;;;;5040835;28;20034;-73
2021/03/31 03:51:26;;;;;;;43.42;22.20;;;5.00;55.00;;;;;;5041866;28;20040;-72
2021/03/31 03:53:56;;;;;;;44.83;23.92;;;5.00;55.10;;;;;;5042297;28;20053;-76
2021/03/31 03:56:22;;;;;;;41.75;22.80;;;5.00;55.20;;;;;;5042841;28;20021;-76
2021/03/31 03:58:48;;;;;;;43.13;22.10;;;5.00;55.10;;;;;;5045341;28;20108;-73
2021/03/31 04:01:14;;;;;;;36.35;21.40;;;5.00;55.10;;;;;;5052515;28;20072;-73
2021/03/31 04:03:40;;;;;;;38.50;21.10;;;5.00;55.10;;;;;;5051164;28;20044;-73
2021/03/31 04:06:08;;;;;;;38.53;19.98;;;5.00;55.20;;;;;;5043139;28;20062;-73
2021/03/31 04:08:34;;;;;;;35.15;20.15;;;5.10;55.20;;;;;;5046178;28;20475;-74
2021/03/31 04:11:00;;;;;;;41.50;19.55;;;5.10;55.20;;;;;;5041795;28;20068;-76
2021/03/31 04:13:28;;;;;;;37.10;20.60;;;5.10;55.10;;;;;;5043371;28;20025;-74
2021/03/31 04:16:21;;;;;;;36.35;19.67;;;5.20;55.20;;;;;;5041196;28;20131;-74
2021/03/31 04:18:48;;;;;;;38.28;22.05;;;5.30;55.30;;;;;;5038504;28;20073;-73
2021/03/31 04:21:15;;;;;;;35.38;21.13;;;5.40;55.00;;;;;;5032921;28;20079;-76
2021/03/31 04:23:41;;;;;;;36.53;21.02;;;5.40;54.80;;;;;;5040231;28;20040;-74
2021/03/31 04:26:08;;;;;;;39.63;22.60;;;5.50;54.70;;;;;;5042830;28;20017;-73
2021/03/31 04:28:35;;;;;;;40.88;20.48;;;5.60;54.60;;;;;;5043134;28;20033;-73
2021/03/31 04:31:04;;;;;;;31.50;18.75;;;5.60;54.40;;;;;;5041463;28;20043;-75
2021/03/31 04:33:31;;;;;;;34.13;19.15;;;5.70;54.40;;;;;;5041668;28;20473;-74
2021/03/31 04:35:57;;;;;;;36.30;20.23;;;5.70;54.30;;;;;;5043708;28;20037;-74
2021/03/31 04:38:22;;;;;;;39.35;20.98;;;5.80;54.30;;;;;;5042217;28;20108;-73
2021/03/31 04:40:51;;;;;;;47.83;22.02;;;5.90;54.20;;;;;;5052323;28;20022;-74
2021/03/31 04:43:18;;;;;;;38.08;19.70;;;5.90;54.10;;;;;;5052636;28;20021;-73
2021/03/31 04:45:43;;;;;;;40.33;21.58;;;6.00;54.00;;;;;;5052383;28;20025;-73
2021/03/31 04:48:09;;;;;;;40.45;22.20;;;6.00;53.90;;;;;;5037677;28;20038;-74
2021/03/31 04:50:35;;;;;;;43.25;23.23;;;6.10;53.90;;;;;;5032776;28;20025;-74
2021/03/31 04:53:02;;;;;;;44.40;23.27;;;6.20;53.80;;;;;;5038484;28;20050;-74
2021/03/31 04:55:28;;;;;;;43.47;21.52;;;6.30;53.80;;;;;;5034469;28;20026;-74
2021/03/31 04:57:54;;;;;;;43.55;21.50;;;6.40;53.70;;;;;;5036369;28;20040;-73
2021/03/31 05:00:20;;;;;;;39.60;20.23;;;6.50;53.40;;;;;;5036372;28;20029;-73
2021/03/31 05:02:45;;;;;;;41.08;20.83;;;6.60;53.20;;;;;;5036255;28;20071;-73
2021/03/31 05:05:12;;;;;;;38.53;19.75;;;6.70;53.00;;;;;;5038822;28;20029;-74
2021/03/31 05:07:38;;;;;;;37.40;20.08;;;6.80;53.00;;;;;;5036060;28;20025;-74
2021/03/31 05:10:05;;;;;;;37.42;19.52;;;7.00;52.90;;;;;;5043515;28;20087;-75
2021/03/31 05:12:30;;;;;;;36.65;19.58;;;7.00;52.50;;;;;;5055854;28;20391;-73
2021/03/31 05:14:56;;;;;;;32.83;17.35;;;7.10;52.20;;;;;;5056353;28;20028;-72
2021/03/31 05:17:22;;;;;;;37.75;17.80;;;7.30;52.00;;;;;;5055870;28;20433;-73
2021/03/31 05:19:48;;;;;;;30.98;18.13;;;7.30;51.70;;;;;;5039684;28;20049;-74
2021/03/31 05:22:14;;;;;;;38.90;19.45;;;7.40;51.40;;;;;;5035601;28;20068;-73
2021/03/31 05:24:40;;;;;;;38.15;18.75;;;7.50;51.20;;;;;;5035508;28;20029;-73
2021/03/31 05:27:06;;;;;;;41.03;17.30;;;7.60;51.10;;;;;;5038008;28;20028;-74
2021/03/31 05:29:34;;;;;;;35.05;16.83;;;7.70;50.90;;;;;;5055852;28;20033;-73
2021/03/31 05:31:59;;;;;;;31.60;15.80;;;7.80;50.60;;;;;;5055752;28;20467;-73
2021/03/31 05:34:26;;;;;;;26.75;15.85;;;7.90;50.30;;;;;;5055620;28;20039;-74
2021/03/31 05:36:52;;;;;;;31.42;16.58;;;7.90;50.00;;;;;;5055577;28;20055;-73
2021/03/31 05:39:18;;;;;;;31.35;16.67;;;8.00;49.80;;;;;;5054003;28;20029;-73
2021/03/31 05:41:45;;;;;;;35.50;16.77;;;8.00;49.70;;;;;;5054190;28;20406;-73
2021/03/31 05:44:11;;;;;;;28.10;16.77;;;8.10;49.70;;;;;;5055548;28;20383;-74
2021/03/31 05:46:38;;;;;;;30.13;17.40;;;8.10;49.50;;;;;;5055434;28;20059;-74
2021/03/31 05:49:04;;;;;;;33.25;16.80;;;8.10;49.40;;;;;;5055327;28;20037;-74
2021/03/31 05:51:32;;;;;;;29.02;17.45;;;8.10;49.20;;;;;;5055425;28;20135;-73
2021/03/31 05:53:57;;;;;;;33.63;17.40;;;8.20;49.40;;;;;;5055398;28;20032;-75
2021/03/31 05:56:24;;;;;;;33.25;18.45;;;8.30;49.30;;;;;;5055056;28;20025;-74
2021/03/31 05:58:50;;;;;;;35.40;19.55;;;8.30;49.30;;;;;;5051774;28;20036;-73
2021/03/31 06:01:18;;;;;;;30.90;18.45;;;8.50;49.30;;;;;;5043303;28;20025;-76
2021/03/31 06:03:45;;;;;;;37.03;18.13;;;8.60;49.20;;;;;;5044561;28;20082;-73
2021/03/31 06:06:11;;;;;;;36.20;19.67;;;8.60;49.00;;;;;;5044722;28;20029;-73
2021/03/31 06:08:37;;;;;;;33.10;18.40;;;8.70;48.90;;;;;;5051836;28;20051;-73
2021/03/31 06:11:04;;;;;;;35.08;19.48;;;8.80;48.80;;;;;;5042695;28;20026;-74
2021/03/31 06:13:53;;;;;;;31.70;18.15;;;8.90;48.70;;;;;;5043882;28;20538;-74
2021/03/31 06:16:33;;;;;;;30.60;18.48;;;9.00;48.60;;;;;;5041955;28;20474;-75
2021/03/31 06:19:20;;;;;;;29.45;17.02;;;9.10;48.50;;;;;;5044965;28;20169;-74
2021/03/31 06:22:07;;;;;;;33.35;18.17;;;9.20;48.30;;;;;;5042051;28;20071;-74
2021/03/31 06:24:35;;;;;;;33.80;19.10;;;9.20;48.20;;;;;;5043751;28;20022;-74
2021/03/31 06:27:00;;;;;;;31.83;18.05;;;9.40;48.30;;;;;;5047683;28;20078;-76
2021/03/31 06:30:04;;;;;;;38.65;20.45;;;9.50;48.20;;;;;;5047929;28;20037;-75
2021/03/31 06:32:38;;;;;;;31.83;19.48;;;9.60;48.10;;;;;;5042328;28;20451;-75
2021/03/31 06:35:06;;;;;;;37.42;19.08;;;9.70;47.90;;;;;;5042503;28;20031;-74
2021/03/31 06:37:40;;;;;;;44.80;24.98;;;9.80;47.70;;;;;;5043376;28;20116;-74
2021/03/31 06:40:08;;;;;;;38.95;20.10;;;9.90;47.60;;;;;;5042607;28;20025;-73
2021/03/31 06:42:40;;;;;;;37.38;20.65;;;10.00;47.40;;;;;;5042882;28;20048;-74
2021/03/31 06:45:21;;;;;;;41.80;23.58;;;10.10;47.40;;;;;;5042747;28;20024;-74
2021/03/31 06:47:56;;;;;;;37.33;21.60;;;10.10;47.40;;;;;;5042562;28;20021;-74
2021/03/31 06:50:23;;;;;;;35.28;20.80;;;10.20;47.30;;;;;;5041974;28;20026;-74
2021/03/31 06:52:55;;;;;;;36.30;21.70;;;10.30;47.20;;;;;;5043376;28;20025;-74
2021/03/31 06:55:21;;;;;;;37.92;24.38;;;10.50;47.20;;;;;;5038886;28;20348;-74
2021/03/31 06:58:01;;;;;;;41.05;23.20;;;10.70;47.10;;;;;;5039100;28;20021;-74
2021/03/31 07:00:28;;;;;;;40.45;22.23;;;10.90;46.80;;;;;;5041710;28;20083;-74
2021/03/31 07:02:55;;;;;;;38.00;21.75;;;11.10;46.50;;;;;;5042875;28;20017;-75
2021/03/31 07:05:22;;;;;;;38.15;22.80;;;11.20;46.10;;;;;;5036647;28;20033;-73
2021/03/31 07:07:48;;;;;;;38.40;22.33;;;11.30;45.90;;;;;;5036598;28;20043;-74
2021/03/31 07:10:16;;;;;;;37.72;19.55;;;11.40;45.80;;;;;;5033632;28;20261;-74
2021/03/31 07:12:43;;;;;;;41.72;24.55;;;11.50;45.70;;;;;;5033955;28;20131;-73
2021/03/31 07:15:11;;;;;;;43.55;23.13;;;11.40;45.50;;;;;;5033404;28;20101;-77
2021/03/31 07:17:40;;;;;;;34.70;22.45;;;11.50;45.70;;;;;;5036295;28;20025;-74
2021/03/31 07:20:07;;;;;;;39.38;22.70;;;11.50;45.70;;;;;;5036503;28;20045;-74
2021/03/31 07:22:34;;;;;;;36.75;21.52;;;11.60;45.70;;;;;;5032878;28;20029;-74
2021/03/31 07:25:01;;;;;;;36.53;21.77;;;11.70;45.50;;;;;;5040345;28;20029;-75
2021/03/31 07:27:28;;;;;;;34.55;20.63;;;11.80;45.40;;;;;;5047095;28;20032;-75
2021/03/31 07:30:10;;;;;;;29.30;17.27;;;11.90;45.20;;;;;;5035847;28;20115;-75
2021/03/31 07:32:48;;;;;;;27.20;17.13;;;12.00;44.80;;;;;;5053604;28;20021;-75
2021/03/31 07:35:14;;;;;;;30.40;17.95;;;12.10;44.30;;;;;;5053063;28;20021;-74
2021/03/31 07:37:41;;;;;;;27.42;17.70;;;12.10;44.10;;;;;;5052009;28;20163;-74
2021/03/31 07:40:10;;;;;;;33.72;17.65;;;12.10;43.80;;;;;;5052544;28;20033;-73
2021/03/31 07:42:40;;;;;;;31.25;18.08;;;12.10;43.80;;;;;;5053287;28;20036;-74
2021/03/31 07:45:09;;;;;;;31.90;19.15;;;12.20;43.80;;;;;;5053264;28;20029;-74
2021/03/31 07:47:36;;;;;;;30.40;15.20;;;12.30;43.70;;;;;;5053246;28;20033;-74
2021/03/31 07:50:03;;;;;;;28.85;17.42;;;12.40;43.20;;;;;;5052818;28;20037;-74
2021/03/31 07:52:48;;;;;;;30.25;16.50;;;12.40;43.00;;;;;;5053230;28;20040;-73
2021/03/31 07:55:44;;;;;;;28.23;17.05;;;12.40;42.90;;;;;;5052150;28;20490;-74
2021/03/31 07:58:14;;;;;;;40.80;14.85;;;12.60;42.80;;;;;;5051769;28;20025;-74
2021/03/31 08:01:00;;;;;;;25.92;15.93;;;12.80;42.90;;;;;;5052961;28;20370;-74
2021/03/31 08:03:32;;;;;;;29.85;15.60;;;13.00;42.50;;;;;;5053112;28;20029;-74
2021/03/31 08:06:08;;;;;;;22.05;15.25;;;13.20;42.10;;;;;;5053214;28;20026;-74
2021/03/31 08:08:35;;;;;;;29.70;15.20;;;13.30;41.60;;;;;;5052839;28;20094;-74
2021/03/31 08:11:01;;;;;;;20.63;14.63;;;13.30;41.30;;;;;;5053317;28;20048;-74
2021/03/31 08:13:34;;;;;;;25.20;15.38;;;13.30;41.30;;;;;;5052731;28;20075;-75
2021/03/31 08:16:20;;;;;;;27.58;15.60;;;13.20;41.20;;;;;;5052898;28;20036;-73
2021/03/31 08:18:47;;;;;;;28.55;16.35;;;13.30;41.30;;;;;;5051712;28;20457;-74
2021/03/31 08:21:28;;;;;;;27.65;17.15;;;13.30;41.40;;;;;;5051337;28;20101;-74
2021/03/31 08:23:58;;;;;;;30.85;17.42;;;13.30;41.60;;;;;;5051644;28;20063;-74
2021/03/31 08:26:32;;;;;;;28.88;18.35;;;13.40;41.60;;;;;;5052829;28;20460;-74
2021/03/31 08:29:18;;;;;;;27.75;16.67;;;13.50;41.60;;;;;;5051455;28;20037;-75
2021/03/31 08:31:46;;;;;;;32.95;18.33;;;13.60;41.40;;;;;;5034780;28;20386;-74
2021/03/31 08:34:13;;;;;;;33.42;17.88;;;13.70;41.40;;;;;;5056906;28;20021;-74
2021/03/31 08:36:40;;;;;;;29.80;18.55;;;13.80;41.40;;;;;;5056469;28;20017;-73
2021/03/31 08:39:08;;;;;;;27.58;16.10;;;13.90;41.20;;;;;;5056639;28;20033;-75
2021/03/31 08:41:41;;;;;;;30.65;17.48;;;14.00;41.10;;;;;;5056632;28;20025;-74
2021/03/31 08:44:11;;;;;;;30.52;16.92;;;14.00;40.90;;;;;;5054285;28;20071;-75
2021/03/31 08:46:37;;;;;;;27.45;18.02;;;14.20;41.00;;;;;;5044486;28;20028;-75
2021/03/31 08:49:03;;;;;;;30.88;18.08;;;14.30;41.00;;;;;;5044861;28;20037;-75
2021/03/31 08:51:28;;;;;;;30.77;17.75;;;14.30;40.80;;;;;;5044101;28;20025;-74
2021/03/31 08:54:01;;;;;;;24.92;16.05;;;14.30;40.70;;;;;;5045224;28;20027;-75
2021/03/31 08:56:27;;;;;;;32.92;19.85;;;14.20;40.60;;;;;;5046640;28;20033;-75
2021/03/31 08:58:56;;;;;;;29.10;19.27;;;14.20;40.70;;;;;;5045007;28;20096;-74
2021/03/31 09:01:32;;;;;;;29.77;17.75;;;14.20;41.40;;;;;;5045766;28;20059;-74
2021/03/31 09:04:17;;;;;;;25.92;17.90;;;14.20;40.80;;;;;;5045665;28;20431;-74
2021/03/31 09:06:43;;;;;;;30.30;19.00;;;14.10;40.90;;;;;;5045860;28;20051;-74
2021/03/31 09:09:09;;;;;;;33.22;19.40;;;14.10;41.00;;;;;;5046074;28;20463;-73
2021/03/31 09:11:35;;;;;;;31.83;18.35;;;14.10;41.10;;;;;;5044605;28;20021;-75
2021/03/31 09:14:30;;;;;;;25.05;16.52;;;14.20;41.20;;;;;;5044516;28;20028;-75
2021/03/31 09:16:57;;;;;;;28.40;16.27;;;14.40;41.20;;;;;;5037492;28;20067;-72
2021/03/31 09:19:25;;;;;;;29.35;18.70;;;14.60;41.00;;;;;;5043361;28;20126;-76
2021/03/31 09:21:52;;;;;;;22.15;15.13;;;14.90;40.90;;;;;;5045286;28;20630;-75
2021/03/31 09:24:25;;;;;;;24.08;15.68;;;15.00;40.30;;;;;;5045263;28;20471;-74
2021/03/31 09:27:03;;;;;;;26.98;16.23;;;15.10;40.30;;;;;;5044578;28;20039;-76
2021/03/31 09:29:29;;;;;;;24.52;17.42;;;15.20;40.20;;;;;;5045517;28;20459;-74
2021/03/31 09:31:57;;;;;;;24.98;16.27;;;15.20;39.90;;;;;;5042824;28;20116;-75
2021/03/31 09:34:23;;;;;;;24.55;17.42;;;15.40;40.00;;;;;;5041792;28;20071;-74
2021/03/31 09:36:58;;;;;;;26.27;16.70;;;15.50;39.80;;;;;;5043411;28;20025;-74
2021/03/31 09:39:36;;;;;;;;;;;15.70;39.50;;;;;;5043834;28;20495;-76
2021/03/31 09:42:03;;;;;;;27.88;15.63;;;15.80;39.50;;;;;;5044898;28;20274;-74
2021/03/31 09:44:31;;;;;;;21.95;15.25;;;16.00;39.20;;;;;;5046349;28;20072;-75
2021/03/31 09:46:57;;;;;;;22.67;15.57;;;16.10;39.10;;;;;;5044425;28;20021;-74
2021/03/31 09:49:23;;;;;;;23.58;14.73;;;16.30;38.90;;;;;;5045346;28;20065;-75
2021/03/31 09:51:49;;;;;;;26.10;15.38;;;16.40;38.60;;;;;;5045163;28;20514;-76
2021/03/31 09:54:14;;;;;;;24.17;13.77;;;16.50;38.40;;;;;;5042564;28;20021;-79
2021/03/31 09:56:42;;;;;;;17.27;12.80;;;16.80;38.10;;;;;;5043196;28;20017;-75
2021/03/31 09:59:10;;;;;;;24.08;13.88;;;17.10;37.50;;;;;;5048099;28;20087;-75
2021/03/31 10:01:37;;;;;;;26.63;13.32;;;17.40;37.10;;;;;;5041486;28;20021;-75
2021/03/31 10:04:03;;;;;;;17.67;13.48;;;17.80;36.70;;;;;;5043414;28;20067;-75
2021/03/31 10:06:29;;;;;;;21.45;11.90;;;18.10;36.20;;;;;;5049754;28;20024;-74
2021/03/31 10:08:56;;;;;;;18.80;13.73;;;18.40;35.60;;;;;;5055228;28;20391;-74
2021/03/31 10:11:28;;;;;;;21.88;13.27;;;18.60;35.40;;;;;;5054474;28;20478;-74
2021/03/31 10:13:54;;;;;;;18.17;12.13;;;19.00;35.20;;;;;;5042798;28;20033;-76
2021/03/31 10:16:20;;;;;;;20.90;13.10;;;19.50;34.60;;;;;;5045058;28;20036;-76
2021/03/31 10:18:46;;;;;;;19.58;12.52;;;19.80;33.90;;;;;;5044645;28;20042;-74
2021/03/31 10:21:12;;;;;;;18.27;12.10;;;19.90;33.50;;;;;;5046711;28;20021;-75
2021/03/31 10:23:44;;;;;;;18.27;12.52;;;20.00;32.80;;;;;;5041308;28;20021;-75
2021/03/31 10:26:22;;;;;;;22.25;15.93;;;19.90;32.50;;;;;;5044676;28;20537;-73
2021/03/31 10:28:49;;;;;;;23.30;15.73;;;19.70;32.50;;;;;;5045238;28;20395;-76
2021/03/31 10:31:19;;;;;;;24.80;16.13;;;19.70;32.70;;;;;;5047100;28;20048;-75
2021/03/31 10:33:45;;;;;;;23.35;14.05;;;19.60;32.50;;;;;;5054612;28;20024;-74
2021/03/31 10:36:11;;;;;;;21.40;13.13;;;19.50;32.70;;;;;;5048710;28;20052;-76
2021/03/31 10:38:47;;;;;;;19.35;12.68;;;19.60;32.80;;;;;;5054510;28;20094;-75
2021/03/31 10:54:24;;;;;;;22.48;11.88;;;19.00;33.10;;;;;;5053620;28;20025;-74
2021/03/31 10:56:54;;;;;;;21.15;13.15;;;18.80;33.00;;;;;;5054188;28;20025;-76
2021/03/31 10:59:20;;;;;;;16.50;12.23;;;18.70;33.00;;;;;;5053887;28;20423;-76
2021/03/31 11:01:45;;;;;;;21.70;12.85;;;18.50;33.20;;;;;;5054058;28;20466;-75
2021/03/31 11:04:11;;;;;;;22.27;13.45;;;18.40;33.30;;;;;;5047815;28;20067;-74
2021/03/31 11:06:37;;;;;;;20.48;12.20;;;18.30;33.40;;;;;;5045211;28;20099;-74
2021/03/31 11:09:04;;;;;;;22.90;13.45;;;18.20;33.60;;;;;;5045289;28;20037;-75
2021/03/31 11:11:31;;;;;;;31.65;19.85;;;18.10;33.80;;;;;;5036234;28;20025;-74
2021/03/31 11:13:56;;;;;;;30.23;15.02;;;18.10;34.40;;;;;;5032784;28;20108;-74
2021/03/31 11:16:22;;;;;;;86.65;25.45;;;18.00;34.60;;;;;;5032513;28;20084;-75
2021/03/31 11:26:32;;;;;;;46.00;21.30;;;17.80;37.00;;;;;;5042695;28;20103;-74
2021/03/31 11:28:58;;;;;;;70.18;22.80;;;17.70;37.10;;;;;;5041057;28;20034;-74
2021/03/31 11:31:24;;;;;;;91.57;38.65;;;17.70;37.30;;;;;;5043338;28;20025;-75
2021/03/31 11:33:50;;;;;;;84.50;28.58;;;17.60;37.40;;;;;;5039313;28;20108;-75
2021/03/31 11:36:16;;;;;;;55.10;25.40;;;17.50;37.60;;;;;;5043157;28;20033;-75
2021/03/31 11:38:44;;;;;;;68.22;25.80;;;17.40;37.80;;;;;;5040813;28;20114;-75
2021/03/31 11:41:10;;;;;;;43.33;18.00;;;17.40;38.00;;;;;;5050061;28;20033;-76
2021/03/31 11:43:36;;;;;;;26.27;16.08;;;17.30;38.00;;;;;;5052031;28;20025;-75
2021/03/31 11:46:02;;;;;;;32.03;15.70;;;17.20;37.90;;;;;;5053026;28;20052;-76
2021/03/31 11:48:28;;;;;;;36.28;18.83;;;17.10;37.90;;;;;;5052005;28;20033;-75
2021/03/31 11:50:54;;;;;;;37.72;17.50;;;17.00;38.00;;;;;;5053400;28;20039;-74
2021/03/31 11:53:20;;;;;;;42.65;16.67;;;16.90;37.80;;;;;;5053003;28;20059;-74
2021/03/31 11:55:46;;;;;;;63.00;18.58;;;16.80;37.90;;;;;;5053244;28;20035;-73
2021/03/31 11:58:11;;;;;;;26.52;14.98;;;16.70;38.20;;;;;;5046595;28;20115;-74
2021/03/31 12:00:37;;;;;;;29.52;14.10;;;16.70;38.30;;;;;;5043126;28;20462;-74
2021/03/31 12:03:05;;;;;;;39.13;15.02;;;16.60;38.40;;;;;;5043667;28;20029;-75
2021/03/31 12:05:31;;;;;;;43.22;16.52;;;16.60;38.40;;;;;;5043078;28;20025;-74
2021/03/31 12:07:56;;;;;;;30.90;15.45;;;16.60;38.50;;;;;;5043441;28;20071;-74
2021/03/31 12:10:22;;;;;;;38.95;16.00;;;16.60;38.50;;;;;;5045718;28;20021;-76
2021/03/31 12:12:48;;;;;;;27.50;15.07;;;16.50;38.40;;;;;;5040359;28;20028;-74
2021/03/31 12:15:14;;;;;;;26.40;15.00;;;16.60;38.20;;;;;;5042285;28;20095;-75
2021/03/31 12:17:42;;;;;;;29.33;16.50;;;16.60;38.10;;;;;;5044323;28;20033;-75
2021/03/31 12:20:10;;;;;;;25.92;15.80;;;16.60;38.10;;;;;;5041517;28;20131;-75
2021/03/31 12:22:36;;;;;;;26.52;13.80;;;16.60;38.10;;;;;;5039061;28;20036;-77
2021/03/31 12:25:04;;;;;;;25.50;14.40;;;16.60;38.00;;;;;;5052355;28;20064;-78
2021/03/31 12:27:33;;;;;;;63.55;16.88;;;16.60;37.90;;;;;;5047747;28;20539;-74
2021/03/31 12:29:59;;;;;;;25.95;14.05;;;16.50;37.90;;;;;;5031689;28;20084;-74
2021/03/31 12:32:25;;;;;;;23.95;14.55;;;16.50;37.80;;;;;;5032775;28;20029;-74
2021/03/31 12:34:52;;;;;;;28.83;14.57;;;16.50;37.80;;;;;;5032928;28;20027;-74
2021/03/31 12:37:18;;;;;;;39.72;16.17;;;16.40;37.80;;;;;;5031513;28;20025;-75
2021/03/31 12:39:44;;;;;;;27.65;15.50;;;16.40;37.80;;;;;;5032792;28;20108;-75
2021/03/31 12:42:10;;;;;;;41.85;15.45;;;16.40;37.90;;;;;;5031778;28;20045;-74
2021/03/31 12:44:35;;;;;;;27.50;15.93;;;16.30;37.80;;;;;;5037806;28;20029;-74
2021/03/31 12:47:01;;;;;;;27.52;15.65;;;16.40;37.90;;;;;;5043173;28;20383;-74
2021/03/31 12:49:29;;;;;;;27.98;15.32;;;16.40;37.90;;;;;;5041777;28;20025;-75
2021/03/31 12:51:59;;;;;;;28.77;17.30;;;16.40;37.90;;;;;;5041701;28;20056;-73
2021/03/31 12:54:29;;;;;;;40.33;16.88;;;16.40;38.50;;;;;;5043592;28;20486;-75
2021/03/31 12:56:55;;;;;;;48.05;18.40;;;16.40;37.90;;;;;;5042937;28;20063;-74
2021/03/31 12:59:21;;;;;;;28.92;17.60;;;16.50;37.90;;;;;;5043201;28;20043;-74
2021/03/31 13:01:47;;;;;;;27.52;16.27;;;16.60;37.80;;;;;;5040621;28;20108;-76
2021/03/31 13:04:13;;;;;;;27.77;16.80;;;16.60;37.60;;;;;;5046875;28;20451;-74
2021/03/31 13:06:39;;;;;;;36.63;18.17;;;16.60;37.40;;;;;;5019898;28;20135;-73
2021/03/31 13:09:06;;;;;;;31.75;16.55;;;16.50;37.50;;;;;;5041098;28;20025;-74
2021/03/31 13:11:32;;;;;;;36.03;16.50;;;16.50;37.60;;;;;;5039266;28;20459;-75
2021/03/31 13:14:22;;;;;;;34.05;18.10;;;16.60;37.70;;;;;;5041879;28;20031;-74